Time;durP1;ratioP1;P1;durP2;ratioP2;P2;SDS_P1;SDS_P2;PMS_P1;PMS_P2;Temp;Humidity;BMP_temperature;BMP_pressure;BME280_temperature;BME280_humidity;BME280_pressure;Samples;Min_cycle;Max_cycle;Signal;HPM_P1;HPM_P2
2023/08/22 00:00:10;;;;;;;9.43;7.33;;;22.40;51.60;;;;;;5115394;28;20220;-70
2023/08/22 00:02:35;;;;;;;7.23;5.97;;;22.40;51.10;;;;;;5115109;28;20177;-70
2023/08/22 00:05:01;;;;;;;7.30;6.53;;;22.40;51.60;;;;;;5096451;28;20445;-70
2023/08/22 00:07:27;;;;;;;7.33;6.63;;;22.40;51.10;;;;;;5091554;28;20295;-69
2023/08/22 00:09:52;;;;;;;7.40;6.40;;;22.30;51.20;;;;;;5094846;28;20446;-70
2023/08/22 00:12:18;;;;;;;6.43;5.83;;;22.30;51.10;;;;;;5094413;28;20622;-70
2023/08/22 00:14:45;;;;;;;7.47;5.63;;;22.30;51.80;;;;;;5076334;28;20618;-70
2023/08/22 00:17:11;;;;;;;7.50;6.80;;;22.30;52.20;;;;;;5094653;28;20662;-70
2023/08/22 00:19:38;;;;;;;7.60;5.83;;;22.30;52.30;;;;;;5094669;28;20454;-70
2023/08/22 00:22:04;;;;;;;7.13;5.70;;;22.30;51.70;;;;;;5094370;28;20614;-70
2023/08/22 00:24:30;;;;;;;7.83;7.03;;;22.30;52.10;;;;;;5094493;28;20806;-70
2023/08/22 00:26:57;;;;;;;9.03;6.87;;;22.30;52.30;;;;;;5094267;28;20451;-70
2023/08/22 00:29:22;;;;;;;10.63;7.77;;;22.30;51.60;;;;;;5094360;28;20260;-70
2023/08/22 00:31:48;;;;;;;9.37;6.57;;;22.30;51.90;;;;;;5113269;28;20513;-70
2023/08/22 00:34:14;;;;;;;7.70;6.90;;;22.30;51.90;;;;;;5114561;28;20200;-70
2023/08/22 00:36:40;;;;;;;11.73;7.90;;;22.20;51.90;;;;;;5114526;28;20191;-70
2023/08/22 00:39:05;;;;;;;9.43;5.73;;;22.20;52.20;;;;;;5114684;28;20252;-70
2023/08/22 00:41:31;;;;;;;10.67;7.17;;;22.10;52.10;;;;;;5114354;28;20642;-70
2023/08/22 00:43:56;;;;;;;9.43;6.33;;;22.10;52.10;;;;;;5114330;28;20218;-70
2023/08/22 00:46:24;;;;;;;8.30;7.50;;;22.10;52.50;;;;;;5113748;28;20195;-71
2023/08/22 00:48:50;;;;;;;7.37;6.67;;;22.10;52.50;;;;;;5114236;28;20248;-69
2023/08/22 00:51:17;;;;;;;7.13;6.00;;;22.10;52.80;;;;;;5094026;28;20415;-69
2023/08/22 00:53:43;;;;;;;7.17;6.47;;;22.00;52.40;;;;;;5093652;28;20177;-70
2023/08/22 00:56:09;;;;;;;6.83;5.90;;;22.10;52.40;;;;;;5093713;28;20886;-70
2023/08/22 00:58:35;;;;;;;10.90;6.80;;;22.00;53.20;;;;;;5093892;28;20494;-70
2023/08/22 01:01:02;;;;;;;8.70;6.50;;;22.00;52.90;;;;;;5094286;28;20417;-70
2023/08/22 01:03:28;;;;;;;8.40;7.50;;;22.00;52.90;;;;;;5093428;28;20425;-70
2023/08/22 01:06:17;;;;;;;9.10;5.77;;;22.00;52.90;;;;;;5093592;28;20538;-70
2023/08/22 01:08:49;;;;;;;14.30;7.50;;;22.00;53.10;;;;;;5067559;28;20240;-70
2023/08/22 01:11:38;;;;;;;7.60;6.27;;;22.00;53.30;;;;;;5113909;28;20410;-70
2023/08/22 01:14:07;;;;;;;7.73;6.93;;;21.90;53.80;;;;;;5113969;28;20409;-69
2023/08/22 01:16:33;;;;;;;15.53;7.67;;;21.90;54.00;;;;;;5109540;28;20456;-69
2023/08/22 01:19:01;;;;;;;10.43;6.53;;;21.80;54.70;;;;;;5096922;28;20477;-69
2023/08/22 01:21:27;;;;;;;7.77;6.87;;;21.80;54.60;;;;;;5102923;28;20517;-70
2023/08/22 01:23:52;;;;;;;7.47;6.70;;;21.80;55.40;;;;;;5113296;28;20514;-70
2023/08/22 01:26:18;;;;;;;8.77;7.87;;;21.70;56.30;;;;;;5082763;28;20191;-70
2023/08/22 01:28:52;;;;;;;8.23;7.43;;;21.70;57.50;;;;;;5108909;28;20180;-69
2023/08/22 01:31:24;;;;;;;9.53;7.23;;;21.70;56.80;;;;;;5113549;28;20171;-70
2023/08/22 01:33:59;;;;;;;9.03;8.07;;;21.70;56.80;;;;;;5094883;28;20456;-69
2023/08/22 01:36:25;;;;;;;8.37;6.80;;;21.70;56.80;;;;;;5113367;28;20406;-69
2023/08/22 01:38:53;;;;;;;9.03;7.67;;;21.70;56.80;;;;;;5094823;28;20806;-70
2023/08/22 01:41:20;;;;;;;7.60;6.73;;;21.70;56.80;;;;;;5113291;28;20402;-70
2023/08/22 01:43:46;;;;;;;7.87;6.90;;;21.70;56.80;;;;;;5113076;28;20406;-70
2023/08/22 01:46:11;;;;;;;8.43;7.63;;;21.70;56.80;;;;;;5135366;22;20915;-73
2023/08/22 01:48:37;;;;;;;11.60;7.70;;;21.70;56.80;;;;;;5113252;28;20212;-73
2023/08/22 01:51:03;;;;;;;7.13;6.43;;;21.70;56.80;;;;;;5113054;28;20176;-73
2023/08/22 01:53:28;;;;;;;7.20;6.47;;;21.70;56.30;;;;;;5113028;28;20200;-73
2023/08/22 01:55:58;;;;;;;8.20;7.10;;;21.60;56.60;;;;;;5098626;28;20206;-72
2023/08/22 01:58:24;;;;;;;10.50;7.70;;;21.60;57.10;;;;;;5074227;28;20268;-70
2023/08/22 02:00:50;;;;;;;10.30;8.43;;;21.60;56.70;;;;;;5092545;28;20514;-72
2023/08/22 02:03:15;;;;;;;10.63;7.60;;;21.60;56.70;;;;;;5092420;28;20177;-71
2023/08/22 02:05:41;;;;;;;7.67;6.77;;;21.60;56.70;;;;;;5092626;28;20550;-70
2023/08/22 02:08:06;;;;;;;9.97;8.53;;;21.60;56.60;;;;;;5092660;28;20287;-72
2023/08/22 02:10:32;;;;;;;10.50;9.37;;;21.60;56.70;;;;;;5092468;28;20188;-70
2023/08/22 02:12:57;;;;;;;9.00;8.20;;;21.60;56.00;;;;;;5092150;28;20252;-73
2023/08/22 02:15:23;;;;;;;7.23;6.27;;;21.60;56.60;;;;;;5093345;28;20258;-70
2023/08/22 02:17:49;;;;;;;9.53;7.17;;;21.60;55.90;;;;;;5094576;28;20173;-72
2023/08/22 02:20:14;;;;;;;11.60;8.93;;;21.60;56.50;;;;;;5092910;28;20276;-70
2023/08/22 02:22:40;;;;;;;12.33;8.33;;;21.60;56.60;;;;;;5092250;28;20226;-70
2023/08/22 02:25:09;;;;;;;9.10;6.77;;;21.50;56.70;;;;;;5092280;28;20254;-70
2023/08/22 02:27:36;;;;;;;8.43;7.53;;;21.50;56.70;;;;;;5091942;28;20501;-70
2023/08/22 02:30:06;;;;;;;9.33;7.43;;;21.50;56.70;;;;;;5074284;28;20415;-72
2023/08/22 02:32:32;;;;;;;9.70;7.20;;;21.50;56.50;;;;;;5092215;28;20435;-75
2023/08/22 02:34:58;;;;;;;8.80;7.90;;;21.50;56.30;;;;;;5092289;28;20961;-72
2023/08/22 02:37:23;;;;;;;10.60;8.10;;;21.50;56.60;;;;;;5092625;28;20544;-71
2023/08/22 02:39:49;;;;;;;8.93;7.87;;;21.50;56.60;;;;;;5092154;28;20217;-72
2023/08/22 02:42:14;;;;;;;8.50;7.57;;;21.50;56.60;;;;;;5092054;28;20203;-70
2023/08/22 02:44:40;;;;;;;8.87;7.10;;;21.50;56.60;;;;;;5092388;28;20263;-71
2023/08/22 02:47:05;;;;;;;9.53;8.33;;;21.40;56.60;;;;;;5092182;28;20236;-70
2023/08/22 02:49:31;;;;;;;9.03;7.23;;;21.50;56.40;;;;;;5091722;28;20177;-70
2023/08/22 02:51:56;;;;;;;9.63;8.20;;;21.50;55.80;;;;;;5092177;28;20649;-71
2023/08/22 02:54:22;;;;;;;8.27;7.43;;;21.50;56.20;;;;;;5092878;28;20169;-71
2023/08/22 02:56:47;;;;;;;9.47;8.47;;;21.40;56.00;;;;;;5092956;28;20184;-71
2023/08/22 02:59:13;;;;;;;9.07;7.50;;;21.40;46.60;;;;;;5091954;28;20633;-71
2023/08/22 03:01:39;;;;;;;8.97;7.87;;;21.30;45.00;;;;;;5073730;28;20567;-72
2023/08/22 03:04:04;;;;;;;7.70;6.90;;;21.30;48.20;;;;;;5092161;28;20526;-71
2023/08/22 03:06:30;;;;;;;9.67;8.70;;;21.30;50.30;;;;;;5091958;28;20685;-72
2023/08/22 03:08:56;;;;;;;9.30;7.60;;;21.30;51.40;;;;;;5091789;28;20670;-71
2023/08/22 03:11:21;;;;;;;9.20;7.40;;;21.20;52.60;;;;;;5096041;28;20923;-71
2023/08/22 03:13:47;;;;;;;10.37;8.53;;;21.20;53.00;;;;;;5077633;28;20203;-70
2023/08/22 03:16:13;;;;;;;9.50;7.83;;;21.20;53.60;;;;;;5095926;28;20189;-72
2023/08/22 03:18:38;;;;;;;12.47;8.00;;;21.20;53.90;;;;;;5095997;28;20430;-71
2023/08/22 03:21:04;;;;;;;8.77;7.30;;;21.20;55.00;;;;;;5096214;28;20373;-71
2023/08/22 03:23:29;;;;;;;7.23;6.53;;;21.20;55.90;;;;;;5095880;28;20185;-71
2023/08/22 03:25:56;;;;;;;8.00;7.20;;;21.10;60.40;;;;;;5095816;28;20205;-71
2023/08/22 03:28:21;;;;;;;9.00;7.77;;;21.10;61.30;;;;;;5095698;28;20196;-70
2023/08/22 03:30:47;;;;;;;11.53;10.10;;;21.10;61.30;;;;;;5095784;28;20407;-71
2023/08/22 03:33:12;;;;;;;9.23;8.23;;;21.10;61.30;;;;;;5095245;28;20272;-71
2023/08/22 03:35:38;;;;;;;9.13;8.20;;;21.10;61.80;;;;;;5095938;28;20276;-71
2023/08/22 03:38:03;;;;;;;9.70;8.30;;;21.00;62.30;;;;;;5095511;28;20211;-71
2023/08/22 03:40:29;;;;;;;8.90;7.80;;;21.00;62.50;;;;;;5095475;28;20642;-70
2023/08/22 03:42:54;;;;;;;10.70;7.87;;;21.00;63.50;;;;;;5095117;28;20189;-71
2023/08/22 03:45:20;;;;;;;10.07;7.50;;;21.00;63.00;;;;;;5095170;28;20587;-71
2023/08/22 03:47:45;;;;;;;7.17;6.43;;;21.00;62.50;;;;;;5095490;28;20581;-71
2023/08/22 03:50:11;;;;;;;10.33;7.97;;;21.00;64.20;;;;;;5095048;28;20181;-71
2023/08/22 03:52:36;;;;;;;10.90;8.27;;;21.00;63.20;;;;;;5094958;28;20196;-71
2023/08/22 03:55:02;;;;;;;9.40;7.50;;;21.00;62.50;;;;;;5095361;28;20185;-71
2023/08/22 03:57:27;;;;;;;13.57;6.60;;;21.00;62.70;;;;;;5095350;28;20170;-71
2023/08/22 03:59:53;;;;;;;7.90;6.60;;;20.90;62.70;;;;;;5095205;28;20260;-71
2023/08/22 04:02:19;;;;;;;8.63;7.73;;;20.80;63.50;;;;;;5094949;28;20205;-70
2023/08/22 04:04:44;;;;;;;9.17;8.23;;;20.70;64.50;;;;;;5094966;28;20216;-70
2023/08/22 04:07:10;;;;;;;10.60;8.73;;;20.70;64.50;;;;;;5094917;28;20204;-70
2023/08/22 04:09:35;;;;;;;12.50;9.50;;;20.70;63.50;;;;;;5076740;28;20177;-70
2023/08/22 04:12:01;;;;;;;8.90;8.03;;;20.60;63.40;;;;;;5094822;28;20173;-70
2023/08/22 04:14:26;;;;;;;11.20;9.20;;;20.60;53.80;;;;;;5094938;28;20173;-70
2023/08/22 04:16:52;;;;;;;11.37;7.63;;;20.60;50.60;;;;;;5094951;28;20180;-71
2023/08/22 04:19:17;;;;;;;9.00;7.83;;;20.60;48.90;;;;;;5094935;28;20192;-70
2023/08/22 04:21:43;;;;;;;8.00;7.20;;;20.60;48.90;;;;;;5093753;28;20177;-70
2023/08/22 04:24:09;;;;;;;9.67;7.40;;;20.60;48.30;;;;;;5094749;28;20620;-71
2023/08/22 04:26:35;;;;;;;7.23;6.60;;;20.60;47.70;;;;;;5094248;28;20193;-70
2023/08/22 04:29:00;;;;;;;9.27;8.37;;;20.70;47.30;;;;;;5094366;28;20435;-70
2023/08/22 04:31:26;;;;;;;10.60;8.20;;;20.70;47.30;;;;;;5094536;28;20181;-71
2023/08/22 04:33:51;;;;;;;10.17;8.77;;;20.70;47.00;;;;;;5094128;28;20173;-70
2023/08/22 04:36:17;;;;;;;8.73;7.80;;;20.60;47.20;;;;;;5094443;28;20200;-70
2023/08/22 04:38:43;;;;;;;11.73;7.90;;;20.60;47.50;;;;;;5094160;28;20530;-71
2023/08/22 04:41:08;;;;;;;13.23;8.30;;;20.60;48.20;;;;;;5094380;28;20177;-71
2023/08/22 04:43:34;;;;;;;10.60;7.47;;;20.60;48.60;;;;;;5093907;28;20638;-71
2023/08/22 04:46:02;;;;;;;14.60;8.17;;;20.60;48.90;;;;;;5094076;28;20204;-71
2023/08/22 04:48:27;;;;;;;12.53;8.83;;;20.60;50.10;;;;;;5093879;28;20236;-70
2023/08/22 04:50:53;;;;;;;9.27;8.10;;;20.70;47.70;;;;;;5094034;28;20447;-71
2023/08/22 04:53:18;;;;;;;9.13;8.10;;;20.80;48.00;;;;;;5094253;28;20223;-70
2023/08/22 04:55:44;;;;;;;11.10;8.67;;;20.90;46.00;;;;;;5075764;28;20197;-70
2023/08/22 04:58:09;;;;;;;12.33;6.67;;;20.90;45.90;;;;;;5094025;28;20642;-70
2023/08/22 05:00:35;;;;;;;8.33;7.43;;;20.90;45.40;;;;;;5093768;28;20173;-70
2023/08/22 05:03:00;;;;;;;12.67;7.13;;;21.00;45.90;;;;;;5075517;28;20665;-72
2023/08/22 05:05:26;;;;;;;8.77;7.17;;;21.00;46.00;;;;;;5093860;28;20697;-70
2023/08/22 05:07:52;;;;;;;11.10;8.50;;;21.10;45.80;;;;;;5093725;28;20208;-69
2023/08/22 05:10:17;;;;;;;14.60;8.63;;;21.30;44.40;;;;;;5093396;28;20548;-70
2023/08/22 05:12:43;;;;;;;13.03;7.43;;;21.40;42.30;;;;;;5093260;28;20300;-70
2023/08/22 05:15:09;;;;;;;8.07;7.27;;;21.40;42.20;;;;;;5093427;28;20333;-70
2023/08/22 05:17:34;;;;;;;9.03;8.13;;;21.50;41.20;;;;;;5093269;28;20182;-70
2023/08/22 05:20:00;;;;;;;9.30;7.80;;;21.60;41.30;;;;;;5093397;28;20762;-70
2023/08/22 05:22:25;;;;;;;11.23;9.10;;;21.60;41.00;;;;;;5093078;28;20183;-71
2023/08/22 05:24:51;;;;;;;9.63;7.90;;;21.70;40.80;;;;;;5093221;28;20201;-70
2023/08/22 05:27:17;;;;;;;12.30;7.83;;;21.80;40.10;;;;;;5093270;28;20205;-74
2023/08/22 05:29:43;;;;;;;10.50;8.27;;;21.90;40.00;;;;;;5075040;28;20208;-72
2023/08/22 05:32:08;;;;;;;9.20;8.30;;;22.00;39.60;;;;;;5092975;28;20417;-73
2023/08/22 05:34:34;;;;;;;9.83;7.40;;;22.10;38.00;;;;;;5092303;28;20197;-71
2023/08/22 05:37:00;;;;;;;10.27;8.03;;;22.20;37.00;;;;;;5093165;28;20177;-71
2023/08/22 05:39:25;;;;;;;10.27;7.50;;;22.20;36.90;;;;;;5093010;28;20426;-72
2023/08/22 05:41:51;;;;;;;8.23;7.13;;;22.30;36.40;;;;;;5092886;28;20185;-73
2023/08/22 05:44:16;;;;;;;8.57;7.60;;;23.10;35.40;;;;;;5092778;28;20547;-72
2023/08/22 05:46:42;;;;;;;15.43;6.57;;;24.60;27.00;;;;;;5092765;28;20277;-72
2023/08/22 05:49:07;;;;;;;6.53;5.63;;;26.50;31.70;;;;;;5092595;28;20247;-72
2023/08/22 05:51:33;;;;;;;8.17;6.73;;;28.20;25.50;;;;;;5093147;28;20578;-72
2023/08/22 05:53:58;;;;;;;7.90;6.50;;;29.30;19.60;;;;;;5092583;28;20185;-72
2023/08/22 05:56:24;;;;;;;6.93;6.30;;;30.10;17.00;;;;;;5093477;28;20209;-73
2023/08/22 05:58:49;;;;;;;9.13;7.30;;;31.00;14.60;;;;;;5094043;28;20439;-72
2023/08/22 06:01:15;;;;;;;8.60;7.43;;;31.60;13.70;;;;;;5093525;28;20647;-73
2023/08/22 06:03:41;;;;;;;7.30;6.60;;;32.50;11.50;;;;;;5093636;28;20559;-73
2023/08/22 06:06:06;;;;;;;7.57;6.83;;;33.70;9.50;;;;;;5093679;28;20272;-73
2023/08/22 06:08:32;;;;;;;8.10;6.40;;;34.00;7.40;;;;;;5092776;28;20208;-73
2023/08/22 06:10:57;;;;;;;8.43;7.20;;;32.40;8.80;;;;;;5093174;28;20212;-73
2023/08/22 06:13:23;;;;;;;8.73;6.37;;;31.60;11.00;;;;;;5093374;28;20226;-74
2023/08/22 06:15:49;;;;;;;7.87;7.13;;;32.40;10.50;;;;;;5093781;28;20199;-73
2023/08/22 06:18:15;;;;;;;8.80;8.00;;;33.70;8.70;;;;;;5093694;28;20186;-72
2023/08/22 06:20:40;;;;;;;9.27;8.37;;;34.90;6.10;;;;;;5074998;28;20181;-73
2023/08/22 06:23:06;;;;;;;9.10;8.30;;;35.80;4.10;;;;;;5080496;28;20299;-73
2023/08/22 06:25:34;;;;;;;8.40;7.70;;;36.60;3.00;;;;;;5072522;28;20226;-72
2023/08/22 06:28:00;;;;;;;9.57;8.70;;;36.90;2.60;;;;;;5072993;28;20343;-72
2023/08/22 06:30:27;;;;;;;8.97;8.23;;;37.70;1.70;;;;;;5083913;28;20949;-72
2023/08/22 06:32:52;;;;;;;10.10;9.30;;;38.00;1.10;;;;;;5076899;28;20678;-71
2023/08/22 06:35:18;;;;;;;10.03;9.23;;;38.40;1.00;;;;;;5071923;28;20439;-72
2023/08/22 06:37:43;;;;;;;11.20;9.50;;;38.80;1.00;;;;;;5090215;28;20428;-71
2023/08/22 06:40:09;;;;;;;9.40;8.70;;;39.00;1.00;;;;;;5092042;28;20247;-71
2023/08/22 06:42:35;;;;;;;9.90;9.10;;;39.60;1.00;;;;;;5092362;28;20431;-71
2023/08/22 06:45:01;;;;;;;9.40;8.60;;;39.60;1.00;;;;;;5092004;28;20236;-70
2023/08/22 06:47:26;;;;;;;9.90;9.10;;;39.30;1.00;;;;;;5080759;28;20209;-71
2023/08/22 06:49:52;;;;;;;9.30;8.60;;;40.00;1.00;;;;;;5082744;28;20212;-71
2023/08/22 06:52:19;;;;;;;11.10;10.10;;;40.30;1.00;;;;;;5091905;28;20185;-71
2023/08/22 06:54:45;;;;;;;11.10;9.10;;;39.90;1.00;;;;;;5092124;28;20185;-71
2023/08/22 06:57:10;;;;;;;8.83;7.90;;;40.00;1.00;;;;;;5092255;28;20841;-72
2023/08/22 06:59:36;;;;;;;10.70;9.70;;;40.30;1.00;;;;;;5092129;28;20204;-70
2023/08/22 07:02:02;;;;;;;9.90;9.20;;;40.90;1.00;;;;;;5092879;28;20181;-70
2023/08/22 07:04:30;;;;;;;9.60;8.70;;;41.00;1.00;;;;;;5091845;28;20176;-69
2023/08/22 07:06:55;;;;;;;9.03;7.93;;;41.10;1.00;;;;;;5091542;28;20503;-70
2023/08/22 07:09:21;;;;;;;9.20;8.30;;;41.50;1.00;;;;;;5092329;28;20514;-69
2023/08/22 07:11:46;;;;;;;9.20;8.40;;;40.90;1.00;;;;;;5091639;28;20252;-70
2023/08/22 07:14:13;;;;;;;9.40;8.70;;;41.30;1.00;;;;;;5091848;28;20176;-70
2023/08/22 07:16:38;;;;;;;10.40;9.50;;;41.60;1.00;;;;;;5073003;28;20242;-69
2023/08/22 07:19:04;;;;;;;10.47;9.57;;;41.40;1.00;;;;;;5091383;28;20431;-69
2023/08/22 07:21:29;;;;;;;10.00;9.20;;;41.90;1.00;;;;;;5073290;28;20169;-69
2023/08/22 07:23:55;;;;;;;9.70;8.93;;;40.10;1.00;;;;;;5073431;28;20661;-69
2023/08/22 07:26:20;;;;;;;10.20;9.30;;;41.10;1.00;;;;;;5091602;28;20280;-70
2023/08/22 07:28:46;;;;;;;11.93;10.93;;;41.90;1.00;;;;;;5073503;28;20236;-71
2023/08/22 07:31:12;;;;;;;9.27;8.57;;;42.60;1.00;;;;;;5091385;28;20634;-70
2023/08/22 07:33:37;;;;;;;9.47;8.67;;;41.60;1.00;;;;;;5082088;28;20186;-70
2023/08/22 07:36:03;;;;;;;11.17;8.97;;;42.00;1.00;;;;;;5067268;28;20194;-71
2023/08/22 07:38:29;;;;;;;8.83;8.17;;;41.80;1.00;;;;;;5067432;28;20459;-71
2023/08/22 07:40:54;;;;;;;9.17;8.47;;;40.90;1.00;;;;;;5071627;28;20192;-71
2023/08/22 07:43:20;;;;;;;8.33;7.73;;;39.00;1.00;;;;;;5072816;28;20412;-71
2023/08/22 07:45:45;;;;;;;8.50;7.80;;;37.10;1.00;;;;;;5072580;28;20218;-72
2023/08/22 07:48:11;;;;;;;9.20;8.50;;;35.80;1.00;;;;;;5072677;28;20296;-72
2023/08/22 07:50:37;;;;;;;11.43;8.90;;;35.10;1.00;;;;;;5073195;28;20208;-75
2023/08/22 07:53:05;;;;;;;8.70;8.00;;;34.60;1.00;;;;;;5071774;28;20193;-74
2023/08/22 07:55:31;;;;;;;11.93;10.73;;;34.60;1.00;;;;;;5072795;28;20206;-71
2023/08/22 07:57:56;;;;;;;19.93;8.20;;;35.00;1.00;;;;;;5075397;28;20420;-72
2023/08/22 08:00:22;;;;;;;8.80;7.73;;;35.40;1.00;;;;;;5076055;28;20192;-72
2023/08/22 08:02:49;;;;;;;7.80;7.20;;;35.60;1.00;;;;;;5075344;28;20181;-72
2023/08/22 08:05:15;;;;;;;8.70;8.00;;;35.60;1.00;;;;;;5075864;28;20236;-72
2023/08/22 08:07:40;;;;;;;12.53;8.00;;;36.50;1.00;;;;;;5075202;28;21078;-73
2023/08/22 08:10:07;;;;;;;7.47;6.70;;;36.40;1.00;;;;;;5075125;28;20412;-74
2023/08/22 08:12:33;;;;;;;7.90;7.30;;;37.80;1.00;;;;;;5074883;28;20172;-73
2023/08/22 08:14:58;;;;;;;8.70;8.07;;;39.90;1.00;;;;;;5074630;28;20424;-74
2023/08/22 08:17:25;;;;;;;8.13;7.53;;;40.50;1.00;;;;;;5074745;28;20651;-71
2023/08/22 08:19:51;;;;;;;8.70;7.93;;;41.20;1.00;;;;;;5074737;28;20176;-71
2023/08/22 08:22:16;;;;;;;7.43;6.90;;;42.20;1.00;;;;;;5074828;28;20409;-71
2023/08/22 08:24:43;;;;;;;8.23;7.30;;;42.40;1.00;;;;;;5074713;28;20208;-71
2023/08/22 08:27:08;;;;;;;7.57;7.03;;;43.30;1.00;;;;;;5074507;28;20220;-72
2023/08/22 08:29:34;;;;;;;7.93;7.20;;;44.50;1.00;;;;;;5074861;28;20413;-71
2023/08/22 08:32:00;;;;;;;8.37;7.67;;;45.80;1.00;;;;;;5074479;28;20163;-71
2023/08/22 08:34:26;;;;;;;7.83;7.20;;;45.40;1.00;;;;;;5074304;28;20256;-71
2023/08/22 08:36:52;;;;;;;7.53;7.03;;;44.90;1.00;;;;;;5074594;28;20503;-71
2023/08/22 08:39:18;;;;;;;8.37;7.70;;;44.70;1.00;;;;;;5074804;28;20182;-72
2023/08/22 08:42:10;;;;;;;7.37;6.87;;;45.40;1.00;;;;;;5074427;28;20174;-72
2023/08/22 08:44:36;;;;;;;7.50;6.57;;;45.30;1.00;;;;;;5074439;28;20554;-72
2023/08/22 08:47:03;;;;;;;7.87;7.27;;;45.50;1.00;;;;;;5074117;28;20613;-70
2023/08/22 08:49:32;;;;;;;8.20;7.60;;;46.20;1.00;;;;;;5055990;28;20913;-70
2023/08/22 08:52:00;;;;;;;7.87;7.33;;;46.00;1.00;;;;;;5073752;28;20423;-71
2023/08/22 08:54:28;;;;;;;8.63;7.93;;;45.90;1.00;;;;;;5074238;28;20412;-70
2023/08/22 08:56:54;;;;;;;7.70;7.10;;;;;;;;;;5073924;28;20870;-70
2023/08/22 08:59:19;;;;;;;9.50;8.70;;;41.20;1.00;;;;;;5073949;28;20408;-70
2023/08/22 09:01:46;;;;;;;19.33;9.67;;;;;;;;;;5073541;28;20288;-70
2023/08/22 09:04:11;;;;;;;7.93;7.43;;;37.10;1.60;;;;;;5073817;28;20174;-70
2023/08/22 09:06:38;;;;;;;8.03;7.33;;;35.10;1.00;;;;;;5073303;28;20513;-70
2023/08/22 09:09:05;;;;;;;7.03;6.53;;;33.80;1.00;;;;;;5073196;28;20781;-70
2023/08/22 09:11:31;;;;;;;8.40;7.70;;;33.10;1.00;;;;;;5073339;28;20408;-70
2023/08/22 09:13:58;;;;;;;10.77;8.80;;;32.20;1.00;;;;;;5073442;28;20499;-71
2023/08/22 09:16:25;;;;;;;8.13;7.43;;;31.90;1.00;;;;;;5073254;28;20192;-70
2023/08/22 09:18:50;;;;;;;7.70;7.03;;;31.50;1.00;;;;;;5073636;28;20408;-70
2023/08/22 09:21:16;;;;;;;7.13;6.53;;;31.30;1.00;;;;;;5073535;28;20412;-70
2023/08/22 09:23:42;;;;;;;7.50;6.80;;;31.10;1.00;;;;;;5073164;28;20537;-69
2023/08/22 09:26:10;;;;;;;6.67;6.27;;;30.90;1.00;;;;;;5072902;28;20202;-69
2023/08/22 09:28:41;;;;;;;7.30;6.73;;;30.80;1.00;;;;;;5073309;28;20456;-69
2023/08/22 09:31:07;;;;;;;7.83;7.13;;;30.40;1.00;;;;;;5073366;28;20415;-69
2023/08/22 09:33:46;;;;;;;8.47;7.17;;;30.50;1.00;;;;;;5072670;28;20408;-69
2023/08/22 09:36:11;;;;;;;6.93;6.43;;;30.60;1.00;;;;;;5072882;28;20557;-69
2023/08/22 09:38:57;;;;;;;5.50;5.00;;;30.60;1.00;;;;;;5073027;28;20412;-69
2023/08/22 09:41:25;;;;;;;6.90;6.30;;;30.70;1.00;;;;;;5054731;28;20205;-70
2023/08/22 09:43:58;;;;;;;6.67;6.10;;;30.60;1.00;;;;;;5072870;28;20426;-69
2023/08/22 09:46:24;;;;;;;7.10;6.50;;;30.70;1.00;;;;;;5072669;28;20451;-74
2023/08/22 09:48:50;;;;;;;6.60;5.80;;;30.80;1.00;;;;;;5068881;28;20475;-70
2023/08/22 09:51:20;;;;;;;6.90;6.30;;;30.90;1.00;;;;;;5067885;28;20439;-69
2023/08/22 09:53:59;;;;;;;7.47;6.30;;;30.90;1.00;;;;;;5093058;28;20478;-70
2023/08/22 09:56:26;;;;;;;5.73;5.33;;;31.00;1.00;;;;;;5092939;28;20449;-70
2023/08/22 09:58:55;;;;;;;6.80;6.20;;;31.10;1.00;;;;;;5092849;28;20479;-70
2023/08/22 10:01:22;;;;;;;6.73;6.23;;;31.10;1.00;;;;;;5093190;28;20495;-70
2023/08/22 10:03:49;;;;;;;7.43;6.60;;;31.20;1.00;;;;;;5092869;28;20419;-71
2023/08/22 10:06:15;;;;;;;8.10;7.50;;;31.30;1.00;;;;;;5092567;28;20534;-71
2023/08/22 10:08:43;;;;;;;6.80;6.30;;;31.30;1.00;;;;;;5092670;28;20541;-70
2023/08/22 10:11:11;;;;;;;7.73;7.03;;;31.50;1.00;;;;;;5092748;28;20404;-71
2023/08/22 10:13:38;;;;;;;7.07;6.50;;;31.50;1.00;;;;;;5092283;28;20943;-70
2023/08/22 10:16:04;;;;;;;6.60;6.10;;;31.50;1.00;;;;;;5092587;28;20420;-70
2023/08/22 10:18:30;;;;;;;6.67;6.10;;;31.50;1.00;;;;;;5092730;28;20476;-70
2023/08/22 10:20:56;;;;;;;8.63;6.63;;;31.50;1.00;;;;;;5092242;28;20173;-71
2023/08/22 10:23:53;;;;;;;6.33;5.60;;;31.70;1.00;;;;;;5092252;28;20422;-70
2023/08/22 10:26:20;;;;;;;5.00;4.60;;;32.00;1.00;;;;;;5069776;28;20205;-70
2023/08/22 10:29:15;;;;;;;5.53;5.13;;;32.20;1.00;;;;;;5092414;28;20481;-70
2023/08/22 10:31:59;;;;;;;9.70;5.93;;;32.30;1.00;;;;;;5092209;28;20491;-70
2023/08/22 10:34:25;;;;;;;5.10;4.80;;;32.40;1.00;;;;;;5092283;28;20494;-70
2023/08/22 10:36:59;;;;;;;6.90;6.40;;;32.40;1.00;;;;;;5092153;28;20843;-70
2023/08/22 10:39:38;;;;;;;6.90;6.30;;;32.30;1.00;;;;;;5092295;28;20422;-70
2023/08/22 10:42:04;;;;;;;6.57;5.93;;;32.30;1.00;;;;;;5092459;28;20411;-70
2023/08/22 10:44:36;;;;;;;7.33;5.37;;;32.30;1.00;;;;;;5092469;28;20435;-70
2023/08/22 10:47:04;;;;;;;6.40;5.90;;;32.30;1.00;;;;;;5092730;28;20481;-70
2023/08/22 10:49:33;;;;;;;6.03;5.63;;;32.30;1.00;;;;;;5092805;28;20415;-70
2023/08/22 10:52:05;;;;;;;6.57;6.03;;;32.50;1.00;;;;;;5092703;28;20410;-69
2023/08/22 10:54:31;;;;;;;5.17;4.67;;;32.50;1.00;;;;;;5092484;28;20422;-69
2023/08/22 10:57:15;;;;;;;8.40;6.53;;;32.50;1.00;;;;;;5092264;28;20835;-69
2023/08/22 10:59:59;;;;;;;8.50;6.40;;;32.60;1.00;;;;;;5092211;28;20272;-69
2023/08/22 11:02:31;;;;;;;6.53;5.93;;;32.70;1.00;;;;;;5091656;28;20422;-69
2023/08/22 11:04:57;;;;;;;7.30;6.70;;;32.70;1.00;;;;;;5092101;28;20447;-69
2023/08/22 11:07:25;;;;;;;5.80;5.40;;;32.80;1.00;;;;;;5092053;28;20540;-69
2023/08/22 11:09:50;;;;;;;6.80;6.30;;;32.80;1.00;;;;;;5092264;28;20494;-69
2023/08/22 11:12:21;;;;;;;6.60;6.20;;;32.80;1.00;;;;;;5091516;28;20825;-70
2023/08/22 11:14:47;;;;;;;6.93;6.27;;;33.10;1.00;;;;;;5091908;28;20272;-69
2023/08/22 11:17:18;;;;;;;5.93;5.50;;;33.00;1.00;;;;;;5091890;28;20788;-70
2023/08/22 11:19:45;;;;;;;8.07;7.37;;;33.00;1.00;;;;;;5091840;28;20434;-70
2023/08/22 11:22:11;;;;;;;7.10;6.60;;;33.10;1.00;;;;;;5091855;28;20435;-68
2023/08/22 11:24:40;;;;;;;7.13;6.50;;;33.00;1.00;;;;;;5091802;28;20435;-68
2023/08/22 11:27:06;;;;;;;7.33;6.63;;;33.10;1.00;;;;;;5091810;28;20288;-68
2023/08/22 11:29:44;;;;;;;6.97;5.80;;;33.20;1.00;;;;;;5091773;28;20435;-68
2023/08/22 11:32:23;;;;;;;8.13;6.27;;;33.20;1.00;;;;;;5093305;28;20180;-68
2023/08/22 11:34:50;;;;;;;6.40;5.90;;;33.20;1.00;;;;;;5095734;28;20458;-68
2023/08/22 11:37:19;;;;;;;5.93;5.43;;;33.30;1.00;;;;;;5095662;28;20468;-68
2023/08/22 11:39:52;;;;;;;6.47;5.53;;;33.40;1.00;;;;;;5095593;28;20411;-68
2023/08/22 11:42:20;;;;;;;5.83;5.43;;;33.20;1.00;;;;;;5095040;28;20419;-68
2023/08/22 11:45:03;;;;;;;6.17;5.67;;;33.10;1.00;;;;;;5095308;28;20450;-68
2023/08/22 11:47:35;;;;;;;6.50;6.00;;;33.50;1.00;;;;;;5095273;28;20455;-69
2023/08/22 11:50:01;;;;;;;8.17;6.10;;;33.70;1.00;;;;;;5095508;28;20403;-68
2023/08/22 11:52:28;;;;;;;120.40;36.73;;;33.90;1.00;;;;;;5095062;28;20418;-69
2023/08/22 11:55:11;;;;;;;7.87;7.17;;;34.20;1.00;;;;;;5095096;28;20501;-69
2023/08/22 11:57:41;;;;;;;6.20;5.70;;;34.50;1.00;;;;;;5095421;28;20411;-69
2023/08/22 12:00:11;;;;;;;6.10;5.60;;;34.50;1.00;;;;;;5095323;28;20769;-70
2023/08/22 12:02:37;;;;;;;6.50;6.00;;;34.50;1.00;;;;;;5094774;28;20411;-69
2023/08/22 12:05:03;;;;;;;5.20;4.80;;;34.40;1.00;;;;;;5094922;28;20801;-70
2023/08/22 12:07:40;;;;;;;6.10;5.60;;;34.20;1.00;;;;;;5073372;28;20454;-70
2023/08/22 12:10:07;;;;;;;7.43;6.67;;;34.30;1.00;;;;;;5070717;28;20819;-70
2023/08/22 12:12:33;;;;;;;6.47;5.97;;;34.10;1.00;;;;;;5070245;28;20424;-70
2023/08/22 12:14:59;;;;;;;6.77;6.03;;;34.20;1.00;;;;;;5086979;28;20435;-70
2023/08/22 12:17:25;;;;;;;5.80;5.30;;;34.00;1.00;;;;;;5091090;28;20193;-69
2023/08/22 12:19:51;;;;;;;11.40;6.10;;;34.20;1.00;;;;;;5093033;28;20862;-69
2023/08/22 12:22:17;;;;;;;6.67;6.17;;;34.20;1.00;;;;;;5091365;28;20455;-69
2023/08/22 12:24:44;;;;;;;6.17;5.67;;;34.30;1.00;;;;;;5090881;28;20233;-70
2023/08/22 12:27:10;;;;;;;6.47;5.87;;;34.50;1.00;;;;;;5090142;28;20196;-70
2023/08/22 12:29:35;;;;;;;6.07;5.67;;;34.40;1.00;;;;;;5091345;28;20419;-70
2023/08/22 12:32:02;;;;;;;6.23;5.83;;;34.70;1.00;;;;;;5090712;28;20774;-70
2023/08/22 12:34:27;;;;;;;6.50;6.00;;;34.70;1.00;;;;;;5090201;28;20162;-70
2023/08/22 12:36:53;;;;;;;6.53;6.03;;;34.90;1.00;;;;;;5090647;28;20977;-70
2023/08/22 12:39:18;;;;;;;6.60;6.10;;;35.10;1.00;;;;;;5090795;28;20174;-70
2023/08/22 12:41:44;;;;;;;5.63;5.23;;;34.90;1.00;;;;;;5090117;28;20177;-70
2023/08/22 12:44:09;;;;;;;6.70;6.10;;;34.90;1.00;;;;;;5073271;28;20627;-70
2023/08/22 12:46:35;;;;;;;6.80;6.30;;;34.70;1.00;;;;;;5090487;28;20282;-70
2023/08/22 12:49:00;;;;;;;5.97;5.57;;;34.30;1.00;;;;;;5090411;28;20685;-70